Pagrindinis puslapis
METAR-TAF:

METAR-TAF

Oro uostai :

Çardak, Turkija

platuma: 37-47N, ilguma: 029-42E, Aukštis: 849 m

Dabartinis oras

Ataskaita buvo paskelbta 50 minutes, ne 11:50 UTC
Vėjas 5 kt iš Rytų/Pietryčių, svyruoja nuo Rytų/Šiaurės Rytų ir Pietų/Pietryčių
Temperatūra 14°C
Drėgmė 51%
Slėgis 1019 hPa
Matomumas 10 km arba daugiau
Išsisklaidę debesys ne aukštis 3500 ft

METAR: LTAY 151150Z 11005KT 070V150 9999 SCT035 14/04 Q1019

Laikas: 15:40 (12:40 UTC)

Prognozė

Ataskaita buvo paskelbta 2 valandos ir 0 minutes, ne 10:40 UTC
Prognozė galioja nuo 15 metu 12 UTC su 15 metu 21 UTC
Vėjas 2 kt nuo kintamojo kryptimis
Matomumas 10 km arba daugiau
Išsisklaidę debesys ne aukštis 3500 ft
Išsisklaidę debesys ne aukštis 10000 ft

TAF: LTAY 151040Z 1512/1521 VRB02KT 9999 SCT035 SCT100

Orai ataskaitas ir orų prognozės (METAR, TAF).

turimą stotys yra geltonos ir raudonos taškus žemėlapyje.

Perkelti pele per norėdami pamatyti stoties vardą.

Tada spustelėkite, norėdami matyti oro stebėjimo ir prognozės.

Norėdami pakeisti žemėlapį: spustelėkite ant žalios mygtukų su juodo kryžiaus žemyn,; žalią mygtuką su brūkšneliu, jei norite nutolinti; arba žalių rodyklių gretimoms žemėlapius.


METAR-TAF: